createdAt,value
2018-05-09T00:00:44.373Z,64.34
2018-05-09T00:01:44.368Z,63.83
2018-05-09T00:02:44.368Z,65.11
2018-05-09T00:03:44.359Z,64.43
2018-05-09T00:04:44.351Z,64.40
2018-05-09T00:05:44.347Z,65.36
2018-05-09T00:06:44.335Z,65.17
2018-05-09T00:07:44.331Z,65.75
2018-05-09T00:08:44.326Z,66.03
2018-05-09T00:09:44.325Z,66.03
2018-05-09T00:10:44.311Z,66.03
2018-05-09T00:11:44.309Z,65.46
2018-05-09T00:12:44.304Z,65.46
2018-05-09T00:13:44.295Z,65.65
2018-05-09T00:14:44.288Z,65.94
2018-05-09T00:15:44.284Z,66.99
2018-05-09T00:16:44.278Z,67.76
2018-05-09T00:17:44.270Z,67.76
2018-05-09T00:18:44.263Z,68.14
2018-05-09T00:19:44.259Z,67.66
2018-05-09T00:20:44.253Z,67.25
2018-05-09T00:21:44.245Z,68.81
2018-05-09T00:22:44.239Z,67.57
2018-05-09T00:23:44.231Z,66.86
2018-05-09T00:24:44.226Z,66.61
2018-05-09T00:25:44.218Z,65.81
2018-05-09T00:26:44.212Z,65.91
2018-05-09T00:27:44.209Z,66.38
2018-05-09T00:28:44.201Z,66.38
2018-05-09T00:29:44.202Z,67.05
2018-05-09T00:30:44.187Z,66.86
2018-05-09T00:31:44.180Z,66.86
2018-05-09T00:32:44.184Z,67.54
2018-05-09T00:33:44.174Z,67.82
2018-05-09T00:34:44.165Z,68.30
2018-05-09T00:35:44.154Z,68.40
2018-05-09T00:36:44.165Z,68.21
2018-05-09T00:37:44.142Z,67.72
2018-05-09T00:38:44.142Z,67.91
2018-05-09T00:39:44.128Z,68.30
2018-05-09T00:40:44.123Z,67.25
2018-05-09T00:41:44.180Z,67.25
2018-05-09T00:42:44.110Z,67.82
2018-05-09T00:43:44.107Z,67.54
2018-05-09T00:44:44.099Z,67.54
2018-05-09T00:45:44.095Z,67.54
2018-05-09T00:46:44.093Z,68.40
2018-05-09T00:47:44.080Z,68.84
2018-05-09T00:48:44.073Z,68.97
2018-05-09T00:49:44.069Z,68.84
2018-05-09T00:50:44.064Z,69.80
2018-05-09T00:51:44.055Z,69.99
2018-05-09T00:52:44.048Z,70.37
2018-05-09T00:53:44.037Z,69.89
2018-05-09T00:54:44.033Z,69.89
2018-05-09T00:55:44.026Z,69.80
2018-05-09T00:56:44.024Z,69.26
2018-05-09T00:57:44.014Z,69.54
2018-05-09T00:58:44.012Z,68.59
2018-05-09T00:59:44.004Z,69.42
2018-05-09T01:00:44.004Z,68.74
2018-05-09T01:01:43.987Z,68.21
2018-05-09T01:02:43.979Z,67.69
2018-05-09T01:03:43.975Z,67.88
2018-05-09T01:04:43.971Z,67.79
2018-05-09T01:05:43.958Z,67.69
2018-05-09T01:06:43.956Z,67.79
2018-05-09T01:07:43.953Z,66.74
2018-05-09T01:08:43.945Z,67.60
2018-05-09T01:09:43.934Z,67.60
2018-05-09T01:10:43.926Z,67.31
2018-05-09T01:11:43.921Z,68.07
2018-05-09T01:12:43.915Z,66.93
2018-05-09T01:13:43.906Z,66.74
2018-05-09T01:14:43.898Z,66.93
2018-05-09T01:15:43.893Z,66.93
2018-05-09T01:16:43.883Z,67.69
2018-05-09T01:17:43.878Z,66.45
2018-05-09T01:18:43.910Z,66.06
2018-05-09T01:19:43.862Z,66.16
2018-05-09T01:20:43.861Z,67.02
2018-05-09T01:21:43.853Z,68.36
2018-05-09T01:22:43.840Z,67.98
2018-05-09T01:23:43.834Z,67.98
2018-05-09T01:24:43.829Z,67.88
2018-05-09T01:25:43.824Z,66.83
2018-05-09T01:26:43.819Z,67.60
2018-05-09T01:27:43.810Z,67.50
2018-05-09T01:28:43.797Z,67.69
2018-05-09T01:29:43.789Z,67.60
2018-05-09T01:30:43.784Z,67.21
2018-05-09T01:31:43.777Z,66.64
2018-05-09T01:32:43.767Z,67.47
2018-05-09T01:33:43.762Z,67.02
2018-05-09T01:34:43.753Z,66.64
2018-05-09T01:35:43.746Z,67.98
2018-05-09T01:36:43.738Z,67.02
2018-05-09T01:37:43.730Z,66.54
2018-05-09T01:38:43.725Z,67.21
2018-05-09T01:39:43.717Z,67.02
2018-05-09T01:40:43.707Z,66.45
2018-05-09T01:41:43.704Z,65.11
2018-05-09T01:42:43.696Z,65.08
2018-05-09T01:43:43.689Z,65.74
2018-05-09T01:44:43.680Z,66.32
2018-05-09T01:45:43.674Z,66.70
2018-05-09T01:46:43.666Z,66.99
2018-05-09T01:47:43.658Z,68.52
2018-05-09T01:48:43.649Z,68.42
2018-05-09T01:49:43.642Z,68.33
2018-05-09T01:50:43.634Z,68.42
2018-05-09T01:51:43.628Z,68.23
2018-05-09T01:52:43.619Z,69.67
2018-05-09T01:53:43.614Z,68.90
2018-05-09T01:54:43.605Z,69.48
2018-05-09T01:55:43.596Z,69.19
2018-05-09T01:56:43.592Z,68.13
2018-05-09T01:57:43.583Z,68.80
2018-05-09T01:58:43.576Z,68.04
2018-05-09T01:59:43.566Z,68.68
2018-05-09T02:00:43.560Z,69.25
2018-05-09T02:01:43.559Z,69.35
2018-05-09T02:02:43.543Z,69.44
2018-05-09T02:03:43.539Z,69.15
2018-05-09T02:04:43.528Z,69.35
2018-05-09T02:05:43.523Z,69.25
2018-05-09T02:06:43.512Z,68.96
2018-05-09T02:07:43.508Z,68.49
2018-05-09T02:08:43.499Z,68.29
2018-05-09T02:09:43.490Z,68.68
2018-05-09T02:10:43.490Z,69.44
2018-05-09T02:11:43.474Z,68.87
2018-05-09T02:12:43.468Z,69.15
2018-05-09T02:13:43.459Z,69.35
2018-05-09T02:14:43.451Z,69.44
2018-05-09T02:15:43.444Z,69.44
2018-05-09T02:16:43.438Z,69.44
2018-05-09T02:17:43.471Z,68.68
2018-05-09T02:18:43.421Z,70.11
2018-05-09T02:19:43.414Z,68.58
2018-05-09T02:20:43.408Z,67.91
2018-05-09T02:21:43.399Z,68.96
2018-05-09T02:22:43.391Z,68.49
2018-05-09T02:23:43.385Z,68.87
2018-05-09T02:24:43.374Z,68.68
2018-05-09T02:25:43.370Z,69.64
2018-05-09T02:26:43.360Z,69.25
2018-05-09T02:27:43.356Z,68.39
2018-05-09T02:28:43.348Z,69.25
2018-05-09T02:29:43.336Z,69.54
2018-05-09T02:30:43.337Z,69.44
2018-05-09T02:31:43.320Z,70.40
2018-05-09T02:32:43.314Z,70.40
2018-05-09T02:33:43.307Z,70.87
2018-05-09T02:34:43.302Z,70.11
2018-05-09T02:35:43.293Z,69.73
2018-05-09T02:36:43.285Z,70.50
2018-05-09T02:37:43.277Z,70.40
2018-05-09T02:38:43.274Z,71.07
2018-05-09T02:39:43.267Z,71.07
2018-05-09T02:40:43.255Z,71.73
2018-05-09T02:41:43.253Z,72.98
2018-05-09T02:42:43.237Z,73.17
2018-05-09T02:43:43.330Z,73.08
2018-05-09T02:44:43.224Z,74.51
2018-05-09T02:45:43.214Z,73.17
2018-05-09T02:46:43.204Z,73.27
2018-05-09T02:47:43.196Z,72.12
2018-05-09T02:48:43.195Z,72.41
2018-05-09T02:49:43.186Z,73.84
2018-05-09T02:50:43.174Z,72.88
2018-05-09T02:51:43.167Z,72.31
2018-05-09T02:52:43.163Z,72.85
2018-05-09T02:53:43.151Z,72.18
2018-05-09T02:54:43.143Z,72.47
2018-05-09T02:55:43.135Z,71.80
2018-05-09T02:56:43.127Z,72.18
2018-05-09T02:57:43.119Z,72.37
2018-05-09T02:58:43.115Z,72.47
2018-05-09T02:59:43.100Z,72.66
2018-05-09T03:00:43.095Z,72.47
2018-05-09T03:01:43.089Z,71.32
2018-05-09T03:02:43.080Z,71.22
2018-05-09T03:03:43.068Z,71.99
2018-05-09T03:04:43.061Z,70.07
2018-05-09T03:05:43.061Z,70.36
2018-05-09T03:06:43.046Z,70.27
2018-05-09T03:07:43.034Z,70.07
2018-05-09T03:08:43.030Z,70.75
2018-05-09T03:09:43.018Z,71.32
2018-05-09T03:10:43.011Z,70.94
2018-05-09T03:11:43.004Z,71.51
2018-05-09T03:12:42.994Z,71.80
2018-05-09T03:13:42.985Z,72.47
2018-05-09T03:14:42.977Z,72.75
2018-05-09T03:15:42.972Z,74.85
2018-05-09T03:16:42.961Z,74.28
2018-05-09T03:17:42.954Z,74.19
2018-05-09T03:18:42.945Z,74.09
2018-05-09T03:19:42.939Z,74.38
2018-05-09T03:20:42.932Z,73.52
2018-05-09T03:21:42.920Z,73.99
2018-05-09T03:22:42.913Z,73.33
2018-05-09T03:23:42.906Z,73.43
2018-05-09T03:24:42.899Z,73.23
2018-05-09T03:25:42.888Z,72.37
2018-05-09T03:26:42.876Z,73.23
2018-05-09T03:27:42.873Z,72.28
2018-05-09T03:28:42.865Z,71.99
2018-05-09T03:29:42.885Z,71.99
2018-05-09T03:30:42.844Z,71.70
2018-05-09T03:31:42.837Z,72.08
2018-05-09T03:32:42.829Z,72.18
2018-05-09T03:33:42.828Z,71.32
2018-05-09T03:34:42.814Z,71.61
2018-05-09T03:35:42.805Z,71.42
2018-05-09T03:36:42.799Z,71.70
2018-05-09T03:37:42.788Z,72.37
2018-05-09T03:38:42.780Z,71.99
2018-05-09T03:39:42.772Z,71.61
2018-05-09T03:40:42.763Z,71.99
2018-05-09T03:41:42.760Z,71.70
2018-05-09T03:42:42.751Z,72.28
2018-05-09T03:43:42.742Z,73.10
2018-05-09T03:44:42.736Z,72.72
2018-05-09T03:45:42.756Z,72.53
2018-05-09T03:46:42.712Z,72.08
2018-05-09T03:47:42.706Z,72.75
2018-05-09T03:48:42.698Z,73.52
2018-05-09T03:49:42.691Z,73.04
2018-05-09T03:50:42.685Z,73.33
2018-05-09T03:51:42.676Z,72.18
2018-05-09T03:52:42.664Z,72.47
2018-05-09T03:53:42.660Z,73.10
2018-05-09T03:54:42.649Z,73.00
2018-05-09T03:55:42.639Z,73.10
2018-05-09T03:56:42.638Z,73.10
2018-05-09T03:57:42.622Z,73.39
2018-05-09T03:58:42.618Z,73.29
2018-05-09T03:59:42.607Z,73.19
2018-05-09T04:00:42.602Z,73.10
2018-05-09T04:01:42.601Z,73.48
2018-05-09T04:02:42.585Z,73.10
2018-05-09T04:03:42.574Z,75.01
2018-05-09T04:04:42.565Z,74.24
2018-05-09T04:05:42.561Z,74.44
2018-05-09T04:06:42.548Z,74.24
2018-05-09T04:07:42.541Z,74.48
2018-05-09T04:08:42.533Z,75.24
2018-05-09T04:09:42.525Z,73.52
2018-05-09T04:10:42.516Z,73.23
2018-05-09T04:11:42.507Z,73.71
2018-05-09T04:12:42.505Z,73.90
2018-05-09T04:13:42.490Z,73.61
2018-05-09T04:14:42.530Z,73.80
2018-05-09T04:15:42.473Z,74.38
2018-05-09T04:16:42.466Z,74.05
2018-05-09T04:17:42.457Z,74.19
2018-05-09T04:18:42.448Z,74.44
2018-05-09T04:19:42.439Z,74.91
2018-05-09T04:20:42.523Z,75.49
2018-05-09T04:21:42.424Z,75.62
2018-05-09T04:22:42.417Z,75.96
2018-05-09T04:23:42.404Z,75.96
2018-05-09T04:24:42.403Z,76.48
2018-05-09T04:25:42.389Z,76.29
2018-05-09T04:26:42.381Z,76.57
2018-05-09T04:27:42.370Z,75.34
2018-05-09T04:28:42.366Z,75.24
2018-05-09T04:29:42.356Z,75.24
2018-05-09T04:30:42.350Z,74.76
2018-05-09T04:31:42.341Z,75.05
2018-05-09T04:32:42.330Z,74.48
2018-05-09T04:33:42.323Z,74.38
2018-05-09T04:34:42.312Z,72.37
2018-05-09T04:35:42.305Z,72.08
2018-05-09T04:36:42.301Z,71.80
2018-05-09T04:37:42.292Z,71.32
2018-05-09T04:38:42.283Z,70.34
2018-05-09T04:39:42.272Z,67.88
2018-05-09T04:40:42.262Z,65.52
2018-05-09T04:41:42.257Z,63.92
2018-05-09T04:42:42.339Z,63.29
2018-05-09T04:43:42.243Z,63.12
2018-05-09T04:44:42.235Z,60.72
2018-05-09T04:45:42.228Z,60.28
2018-05-09T04:46:42.223Z,59.16
2018-05-09T04:47:42.218Z,58.39
2018-05-09T04:48:42.209Z,58.22
2018-05-09T04:49:42.206Z,56.68
2018-05-09T04:50:42.200Z,56.71
2018-05-09T04:51:42.195Z,56.81
2018-05-09T04:52:42.192Z,56.14
2018-05-09T04:53:42.188Z,55.40
2018-05-09T04:54:42.182Z,55.01
2018-05-09T04:55:42.278Z,55.88
2018-05-09T04:56:42.174Z,55.27
2018-05-09T04:57:42.171Z,56.33
2018-05-09T04:58:42.169Z,57.65
2018-05-09T04:59:42.162Z,58.25
2018-05-09T05:00:42.156Z,57.77
2018-05-09T05:01:42.160Z,56.16
2018-05-09T05:02:42.153Z,55.18
2018-05-09T05:03:42.149Z,56.23
2018-05-09T05:04:42.150Z,56.74
2018-05-09T05:05:42.143Z,55.52
2018-05-09T05:06:42.140Z,55.52
2018-05-09T05:07:42.136Z,54.56
2018-05-09T05:08:42.131Z,54.27
2018-05-09T05:09:42.128Z,54.56
2018-05-09T05:10:42.125Z,54.08
2018-05-09T05:11:42.120Z,54.41
2018-05-09T05:12:42.122Z,56.11
2018-05-09T05:13:42.114Z,57.84
2018-05-09T05:14:42.107Z,57.26
2018-05-09T05:15:42.126Z,56.68
2018-05-09T05:16:42.104Z,56.68
2018-05-09T05:17:42.098Z,58.58
2018-05-09T05:18:42.096Z,60.95
2018-05-09T05:19:42.089Z,61.72
2018-05-09T05:20:42.084Z,61.11
2018-05-09T05:21:42.085Z,62.55
2018-05-09T05:22:42.071Z,62.45
2018-05-09T05:23:42.067Z,62.01
2018-05-09T05:24:42.065Z,62.58
2018-05-09T05:25:42.062Z,62.68
2018-05-09T05:26:42.052Z,62.96
2018-05-09T05:27:42.050Z,62.48
2018-05-09T05:28:42.043Z,62.42
2018-05-09T05:29:42.043Z,61.17
2018-05-09T05:30:42.033Z,61.84
2018-05-09T05:31:42.027Z,61.46
2018-05-09T05:32:42.056Z,61.27
2018-05-09T05:33:42.019Z,61.08
2018-05-09T05:34:42.014Z,60.69
2018-05-09T05:35:42.007Z,60.69
2018-05-09T05:36:42.002Z,61.36
2018-05-09T05:37:41.997Z,61.27
2018-05-09T05:38:42.034Z,61.36
2018-05-09T05:39:41.989Z,61.55
2018-05-09T05:40:41.981Z,61.36
2018-05-09T05:41:41.977Z,60.60
2018-05-09T05:42:41.973Z,61.08
2018-05-09T05:43:41.967Z,61.36
2018-05-09T05:44:41.963Z,61.27
2018-05-09T05:45:41.958Z,60.78
2018-05-09T05:46:41.952Z,61.36
2018-05-09T05:47:41.951Z,60.82
2018-05-09T05:48:41.941Z,59.28
2018-05-09T05:49:41.935Z,60.24
2018-05-09T05:50:41.931Z,59.28
2018-05-09T05:51:41.932Z,59.76
2018-05-09T05:52:41.922Z,59.86
2018-05-09T05:53:41.916Z,59.83
2018-05-09T05:54:41.910Z,60.05
2018-05-09T05:55:41.905Z,62.45
2018-05-09T05:56:41.900Z,63.76
2018-05-09T05:57:41.898Z,64.34
2018-05-09T05:58:41.893Z,65.26
2018-05-09T05:59:41.885Z,65.97
2018-05-09T06:00:41.882Z,65.20
2018-05-09T06:01:41.874Z,64.28
2018-05-09T06:02:41.872Z,62.84
2018-05-09T06:03:41.862Z,62.77
2018-05-09T06:04:41.863Z,62.48
2018-05-09T06:05:41.856Z,61.05
2018-05-09T06:06:41.851Z,60.66
2018-05-09T06:07:41.842Z,61.14
2018-05-09T06:08:41.839Z,61.33
2018-05-09T06:09:41.836Z,62.61
2018-05-09T06:10:41.828Z,61.43
2018-05-09T06:11:41.825Z,63.25
2018-05-09T06:12:41.818Z,63.25
2018-05-09T06:13:41.813Z,63.28
2018-05-09T06:14:41.807Z,62.99
2018-05-09T06:15:41.804Z,61.46
2018-05-09T06:16:41.798Z,61.87
2018-05-09T06:17:41.792Z,60.91
2018-05-09T06:18:41.786Z,59.86
2018-05-09T06:19:41.783Z,60.82
2018-05-09T06:20:41.777Z,60.72
2018-05-09T06:21:41.818Z,60.14
2018-05-09T06:22:41.772Z,59.95
2018-05-09T06:23:41.768Z,59.76
2018-05-09T06:24:41.759Z,60.14
2018-05-09T06:25:41.754Z,60.14
2018-05-09T06:26:41.750Z,59.57
2018-05-09T06:27:41.769Z,60.24
2018-05-09T06:28:41.736Z,59.50
2018-05-09T06:29:41.733Z,59.02
2018-05-09T06:30:41.733Z,59.76
2018-05-09T06:31:41.731Z,60.34
2018-05-09T06:32:41.721Z,60.05
2018-05-09T06:33:41.715Z,60.53
2018-05-09T06:34:41.712Z,59.79
2018-05-09T06:35:41.713Z,59.69
2018-05-09T06:36:41.700Z,58.83
2018-05-09T06:37:41.752Z,58.83
2018-05-09T06:38:41.691Z,58.35
2018-05-09T06:39:41.691Z,59.22
2018-05-09T06:40:41.683Z,59.41
2018-05-09T06:41:41.742Z,59.69
2018-05-09T06:42:41.673Z,59.72
2018-05-09T06:43:41.763Z,58.18
2018-05-09T06:44:41.664Z,57.90
2018-05-09T06:45:41.660Z,56.74
2018-05-09T06:46:41.654Z,56.87
2018-05-09T06:47:41.652Z,57.06
2018-05-09T06:48:41.657Z,57.64
2018-05-09T06:49:41.644Z,55.90
2018-05-09T06:50:41.636Z,55.26
2018-05-09T06:51:41.635Z,54.78
2018-05-09T06:52:41.635Z,55.45
2018-05-09T06:53:41.633Z,55.16
2018-05-09T06:54:41.620Z,55.81
2018-05-09T06:55:41.617Z,56.84
2018-05-09T06:56:41.613Z,57.75
2018-05-09T06:57:41.616Z,59.44
2018-05-09T06:58:41.603Z,60.21
2018-05-09T06:59:41.600Z,60.60
2018-05-09T07:00:41.599Z,59.92
2018-05-09T07:01:41.596Z,60.40
2018-05-09T07:02:41.589Z,61.46
2018-05-09T07:03:41.587Z,61.20
2018-05-09T07:04:41.583Z,60.72
2018-05-09T07:05:41.579Z,61.11
2018-05-09T07:06:41.878Z,59.69
2018-05-09T07:07:41.567Z,59.50
2018-05-09T07:08:41.566Z,58.28
2018-05-09T07:09:41.560Z,57.51
2018-05-09T07:10:41.641Z,57.13
2018-05-09T07:11:41.550Z,57.15
2018-05-09T07:12:41.653Z,56.77
2018-05-09T07:13:41.544Z,56.38
2018-05-09T07:14:41.538Z,55.83
2018-05-09T07:15:41.533Z,54.68
2018-05-09T07:16:41.528Z,54.68
2018-05-09T07:17:41.528Z,53.65
2018-05-09T07:18:41.520Z,52.97
2018-05-09T07:19:41.520Z,53.84
2018-05-09T07:20:41.526Z,53.17
2018-05-09T07:21:41.513Z,53.07
2018-05-09T07:22:41.510Z,51.92
2018-05-09T07:23:41.503Z,52.42
2018-05-09T07:24:41.503Z,51.56
2018-05-09T07:25:41.496Z,51.46
2018-05-09T07:26:41.494Z,51.36
2018-05-09T07:27:41.490Z,50.40
2018-05-09T07:28:41.485Z,49.34
2018-05-09T07:29:41.484Z,49.55
2018-05-09T07:30:41.485Z,49.82
2018-05-09T07:31:41.475Z,50.32
2018-05-09T07:32:41.474Z,50.71
2018-05-09T07:33:41.469Z,50.01
2018-05-09T07:34:41.474Z,49.82
2018-05-09T07:35:41.471Z,50.01
2018-05-09T07:36:41.462Z,50.69
2018-05-09T07:37:41.461Z,50.78
2018-05-09T07:38:41.456Z,50.11
2018-05-09T07:39:41.453Z,50.21
2018-05-09T07:40:41.454Z,51.07
2018-05-09T07:41:41.446Z,51.17
2018-05-09T07:42:41.444Z,52.33
2018-05-09T07:43:41.439Z,52.52
2018-05-09T07:44:41.438Z,52.81
2018-05-09T07:45:41.439Z,51.56
2018-05-09T07:46:41.439Z,51.46
2018-05-09T07:47:41.578Z,51.17
2018-05-09T07:48:41.424Z,51.17
2018-05-09T07:49:41.421Z,50.11
2018-05-09T07:50:41.418Z,51.05
2018-05-09T07:51:41.414Z,50.95
2018-05-09T07:52:41.413Z,51.53
2018-05-09T07:53:41.409Z,52.49
2018-05-09T07:54:41.404Z,51.36
2018-05-09T07:55:41.405Z,51.07
2018-05-09T07:56:41.401Z,50.59
2018-05-09T07:57:41.403Z,50.11
2018-05-09T07:58:41.392Z,50.52
2018-05-09T07:59:41.392Z,50.13
2018-05-09T08:00:41.389Z,49.46
2018-05-09T08:01:41.391Z,49.68
2018-05-09T08:02:41.432Z,49.87
2018-05-09T08:03:41.388Z,46.97
2018-05-09T08:04:41.378Z,47.27
2018-05-09T08:05:41.379Z,46.03
2018-05-09T08:06:41.379Z,46.69
2018-05-09T08:07:41.374Z,47.48
2018-05-09T08:08:41.365Z,47.19
2018-05-09T08:09:41.363Z,46.40
2018-05-09T08:10:41.360Z,46.40
2018-05-09T08:11:41.361Z,47.63
2018-05-09T08:12:41.364Z,48.40
2018-05-09T08:13:41.352Z,49.15
2018-05-09T08:14:41.357Z,48.76
2018-05-09T08:15:41.345Z,48.59
2018-05-09T08:16:41.340Z,48.49
2018-05-09T08:17:41.341Z,49.55
2018-05-09T08:18:41.338Z,47.53
2018-05-09T08:19:41.337Z,46.88
2018-05-09T08:20:41.333Z,46.40
2018-05-09T08:21:41.332Z,46.01
2018-05-09T08:22:41.329Z,45.17
2018-05-09T08:23:41.347Z,45.07
2018-05-09T08:24:41.341Z,44.87
2018-05-09T08:25:41.324Z,45.26
2018-05-09T08:26:41.321Z,46.03
2018-05-09T08:27:41.316Z,46.25
2018-05-09T08:28:41.313Z,45.67
2018-05-09T08:29:41.312Z,45.57
2018-05-09T08:30:41.312Z,45.21
2018-05-09T08:31:41.316Z,45.31
2018-05-09T08:32:41.305Z,45.11
2018-05-09T08:33:41.305Z,45.40
2018-05-09T08:34:41.307Z,45.31
2018-05-09T08:35:41.299Z,44.73
2018-05-09T08:36:41.377Z,44.17
2018-05-09T08:37:41.299Z,45.23
2018-05-09T08:38:41.289Z,43.98
2018-05-09T08:39:41.294Z,43.88
2018-05-09T08:40:41.291Z,43.41
2018-05-09T08:41:41.289Z,43.51
2018-05-09T08:42:41.287Z,42.33
2018-05-09T08:43:41.342Z,43.28
2018-05-09T08:44:41.285Z,44.75
2018-05-09T08:45:41.281Z,44.07
2018-05-09T08:46:41.281Z,42.74
2018-05-09T08:47:41.273Z,43.23
2018-05-09T08:48:41.274Z,42.35
2018-05-09T08:49:41.274Z,42.93
2018-05-09T08:50:41.272Z,43.30
2018-05-09T08:51:41.278Z,43.03
2018-05-09T08:52:41.270Z,42.93
2018-05-09T08:53:41.268Z,42.74
2018-05-09T08:54:41.263Z,43.23
2018-05-09T08:55:41.267Z,42.57
2018-05-09T08:56:41.273Z,42.18
2018-05-09T08:57:41.264Z,41.29
2018-05-09T08:58:41.259Z,41.00
2018-05-09T08:59:41.258Z,41.19
2018-05-09T09:00:41.271Z,41.31
2018-05-09T09:01:41.259Z,41.79
2018-05-09T09:02:41.258Z,41.29
2018-05-09T09:03:41.251Z,40.92
2018-05-09T09:04:41.252Z,40.90
2018-05-09T09:05:41.251Z,41.67
2018-05-09T09:06:41.253Z,42.08
2018-05-09T09:07:41.255Z,41.70
2018-05-09T09:08:41.244Z,42.57
2018-05-09T09:09:41.245Z,42.66
2018-05-09T09:10:41.244Z,41.14
2018-05-09T09:11:41.242Z,40.36
2018-05-09T09:12:41.241Z,39.69
2018-05-09T09:13:41.240Z,40.00
2018-05-09T09:14:41.239Z,40.07
2018-05-09T09:15:41.317Z,39.09
2018-05-09T09:16:41.310Z,39.67
2018-05-09T09:17:41.235Z,41.31
2018-05-09T09:18:41.260Z,41.31
2018-05-09T09:19:41.234Z,40.73
2018-05-09T09:20:41.231Z,39.67
2018-05-09T09:21:41.232Z,38.79
2018-05-09T09:22:41.227Z,39.55
2018-05-09T09:23:41.234Z,40.13
2018-05-09T09:24:41.229Z,40.13
2018-05-09T09:25:41.229Z,40.13
2018-05-09T09:26:41.229Z,41.02
2018-05-09T09:27:41.231Z,40.83
2018-05-09T09:28:41.221Z,40.73
2018-05-09T09:29:41.233Z,40.92
2018-05-09T09:30:41.226Z,39.95
2018-05-09T09:31:41.221Z,38.99
2018-05-09T09:32:41.227Z,39.28
2018-05-09T09:33:41.220Z,38.79
2018-05-09T09:34:41.218Z,38.70
2018-05-09T09:35:41.216Z,38.79
2018-05-09T09:36:41.216Z,39.18
2018-05-09T09:37:41.218Z,39.09
2018-05-09T09:38:41.216Z,38.70
2018-05-09T09:39:41.213Z,38.79
2018-05-09T09:40:41.211Z,38.79
2018-05-09T09:41:41.211Z,38.99
2018-05-09T09:42:41.210Z,39.39
2018-05-09T09:43:41.214Z,38.91
2018-05-09T09:44:41.284Z,38.54
2018-05-09T09:45:41.208Z,38.06
2018-05-09T09:46:41.210Z,37.67
2018-05-09T09:47:41.209Z,37.46
2018-05-09T09:48:41.202Z,37.94
2018-05-09T09:49:41.205Z,38.13
2018-05-09T09:50:41.212Z,38.04
2018-05-09T09:51:41.202Z,38.53
2018-05-09T09:52:41.241Z,37.65
2018-05-09T09:53:41.200Z,37.85
2018-05-09T09:54:41.197Z,37.77
2018-05-09T09:55:41.206Z,37.87
2018-05-09T09:56:41.197Z,37.77
2018-05-09T09:57:41.203Z,37.96
2018-05-09T09:58:41.193Z,37.57
2018-05-09T09:59:41.197Z,37.09
2018-05-09T10:00:41.198Z,37.26
2018-05-09T10:01:41.226Z,37.26
2018-05-09T10:02:41.196Z,38.04
2018-05-09T10:03:41.190Z,38.21
2018-05-09T10:04:41.195Z,38.81
2018-05-09T10:05:41.190Z,37.63
2018-05-09T10:06:41.193Z,37.75
2018-05-09T10:07:41.187Z,38.04
2018-05-09T10:08:41.197Z,38.02
2018-05-09T10:09:41.191Z,37.24
2018-05-09T10:10:41.189Z,37.63
2018-05-09T10:11:41.187Z,37.63
2018-05-09T10:12:41.185Z,37.34
2018-05-09T10:13:41.191Z,37.82
2018-05-09T10:14:41.182Z,37.73
2018-05-09T10:15:41.182Z,37.54
2018-05-09T10:16:41.180Z,37.82
2018-05-09T10:17:41.182Z,37.92
2018-05-09T10:18:41.180Z,37.73
2018-05-09T10:19:41.176Z,35.02
2018-05-09T10:20:41.177Z,33.67
2018-05-09T10:21:41.173Z,34.44
2018-05-09T10:22:41.174Z,36.38
2018-05-09T10:23:41.174Z,37.04
2018-05-09T10:24:41.171Z,37.13
2018-05-09T10:25:41.172Z,37.32
2018-05-09T10:26:41.172Z,37.23
2018-05-09T10:27:41.174Z,37.52
2018-05-09T10:28:41.168Z,37.05
2018-05-09T10:29:41.167Z,36.57
2018-05-09T10:30:41.168Z,36.96
2018-05-09T10:31:41.178Z,37.92
2018-05-09T10:32:41.168Z,37.26
2018-05-09T10:33:41.161Z,35.81
2018-05-09T10:34:41.158Z,35.35
2018-05-09T10:35:41.161Z,35.83
2018-05-09T10:36:41.160Z,35.05
2018-05-09T10:37:41.161Z,35.05
2018-05-09T10:38:41.160Z,35.17
2018-05-09T10:39:41.157Z,34.67
2018-05-09T10:40:41.155Z,34.69
2018-05-09T10:41:41.157Z,34.67
2018-05-09T10:42:41.154Z,34.49
2018-05-09T10:43:41.154Z,34.97
2018-05-09T10:44:41.150Z,34.11
2018-05-09T10:45:41.151Z,34.11
2018-05-09T10:46:41.149Z,34.11
2018-05-09T10:47:41.150Z,34.67
2018-05-09T10:48:41.147Z,35.44
2018-05-09T10:49:41.150Z,35.05
2018-05-09T10:50:41.149Z,34.77
2018-05-09T10:51:41.147Z,35.25
2018-05-09T10:52:41.148Z,34.96
2018-05-09T10:53:41.145Z,34.77
2018-05-09T10:54:41.145Z,34.96
2018-05-09T10:55:41.143Z,33.70
2018-05-09T10:56:41.142Z,32.92
2018-05-09T10:57:41.142Z,33.23
2018-05-09T10:58:41.139Z,34.01
2018-05-09T10:59:41.143Z,33.81
2018-05-09T11:00:41.138Z,35.19
2018-05-09T11:01:41.138Z,34.41
2018-05-09T11:02:41.168Z,34.89
2018-05-09T11:03:41.138Z,35.57
2018-05-09T11:04:41.185Z,36.54
2018-05-09T11:05:41.139Z,35.88
2018-05-09T11:06:41.136Z,35.11
2018-05-09T11:07:41.136Z,35.01
2018-05-09T11:08:41.135Z,35.03
2018-05-09T11:09:41.141Z,35.41
2018-05-09T11:10:41.149Z,35.24
2018-05-09T11:11:41.137Z,34.56
2018-05-09T11:12:41.139Z,34.56
2018-05-09T11:13:41.136Z,34.17
2018-05-09T11:14:41.138Z,34.08
2018-05-09T11:15:41.136Z,34.17
2018-05-09T11:16:41.134Z,34.08
2018-05-09T11:17:41.232Z,32.23
2018-05-09T11:18:41.135Z,32.99
2018-05-09T11:19:41.137Z,34.16
2018-05-09T11:20:41.140Z,33.76
2018-05-09T11:21:41.139Z,33.39
2018-05-09T11:22:41.137Z,32.31
2018-05-09T11:23:41.139Z,31.89
2018-05-09T11:24:41.206Z,32.28
2018-05-09T11:25:41.141Z,33.06
2018-05-09T11:26:41.139Z,32.09
2018-05-09T11:27:41.138Z,31.89
2018-05-09T11:28:41.142Z,32.18
2018-05-09T11:29:41.146Z,32.68
2018-05-09T11:30:41.139Z,33.07
2018-05-09T11:31:41.140Z,33.17
2018-05-09T11:32:41.140Z,34.14
2018-05-09T11:33:41.143Z,33.75
2018-05-09T11:34:41.141Z,32.39
2018-05-09T11:35:41.142Z,32.39
2018-05-09T11:36:41.139Z,31.91
2018-05-09T11:37:41.139Z,30.55
2018-05-09T11:38:41.153Z,31.23
2018-05-09T11:39:41.140Z,30.74
2018-05-09T11:40:41.140Z,30.73
2018-05-09T11:41:41.141Z,30.63
2018-05-09T11:42:41.139Z,30.54
2018-05-09T11:43:41.141Z,31.50
2018-05-09T11:44:41.140Z,31.89
2018-05-09T11:45:41.140Z,31.20
2018-05-09T11:46:41.140Z,31.59
2018-05-09T11:47:41.147Z,32.17
2018-05-09T11:48:41.145Z,31.97
2018-05-09T11:49:41.143Z,32.56
2018-05-09T11:50:41.142Z,32.07
2018-05-09T11:51:41.143Z,31.87
2018-05-09T11:52:41.144Z,31.97
2018-05-09T11:53:41.145Z,31.59
2018-05-09T11:54:41.145Z,32.17
2018-05-09T11:55:41.139Z,32.47
2018-05-09T11:56:41.145Z,32.28
2018-05-09T11:57:41.139Z,33.64
2018-05-09T11:58:41.137Z,33.44
2018-05-09T11:59:41.138Z,33.06
2018-05-09T12:00:41.143Z,31.21
2018-05-09T12:01:41.138Z,30.73
2018-05-09T12:02:41.138Z,31.60
2018-05-09T12:03:41.140Z,31.60
2018-05-09T12:04:41.141Z,33.41
2018-05-09T12:05:41.144Z,37.77
2018-05-09T12:06:41.138Z,39.01
2018-05-09T12:07:41.136Z,40.65
2018-05-09T12:08:41.147Z,41.02
2018-05-09T12:09:41.137Z,41.39
2018-05-09T12:10:41.194Z,42.45
2018-05-09T12:11:41.135Z,41.67
2018-05-09T12:12:41.138Z,41.09
2018-05-09T12:13:41.134Z,40.23
2018-05-09T12:14:41.134Z,38.87
2018-05-09T12:15:41.133Z,40.03
2018-05-09T12:16:41.131Z,39.26
2018-05-09T12:17:41.131Z,39.84
2018-05-09T12:18:41.139Z,39.86
2018-05-09T12:19:41.129Z,39.57
2018-05-09T12:20:41.126Z,38.79
2018-05-09T12:21:41.127Z,39.01
2018-05-09T12:22:41.125Z,39.03
2018-05-09T12:23:41.127Z,38.93
2018-05-09T12:24:41.171Z,37.77
2018-05-09T12:25:41.124Z,37.48
2018-05-09T12:26:41.122Z,37.88
2018-05-09T12:27:41.120Z,37.21
2018-05-09T12:28:41.122Z,37.79
2018-05-09T12:29:41.118Z,37.30
2018-05-09T12:30:41.119Z,37.98
2018-05-09T12:31:41.120Z,37.49
2018-05-09T12:32:41.118Z,37.77
2018-05-09T12:33:41.122Z,37.57
2018-05-09T12:34:41.127Z,37.67
2018-05-09T12:35:41.116Z,37.09
2018-05-09T12:36:41.118Z,38.04
2018-05-09T12:37:41.115Z,37.85
2018-05-09T12:38:41.116Z,37.46
2018-05-09T12:39:41.116Z,38.25
2018-05-09T12:40:41.112Z,37.96
2018-05-09T12:41:41.108Z,36.90
2018-05-09T12:42:41.112Z,37.67
2018-05-09T12:43:41.106Z,37.69
2018-05-09T12:44:41.108Z,37.11
2018-05-09T12:45:41.109Z,37.21
2018-05-09T12:46:41.107Z,36.72
2018-05-09T12:47:41.108Z,36.82
2018-05-09T12:48:41.137Z,37.40
2018-05-09T12:49:41.103Z,36.99
2018-05-09T12:50:41.104Z,37.19
2018-05-09T12:51:41.106Z,37.11
2018-05-09T12:52:41.101Z,38.37